Ashby, Massachusetts
Current Conditions -  °F | °C
As of 6:52 AM on Sunday 23 Nov 2014 (Local Time) from KFIT Reporting Station
Clear Clear  
Wind Chill: 40°   Ceiling: Unl
Heat Index: 43°   Visibility: 10mi
Dew Point: 29°   Wind: 5mph
Humidity: 58%   Direction: NA
Pressure: 30.09"   Gusts: NA
Location:  42.68°N, 71.82°W
Report Text: KFIT 231152Z AUTO VRB04KT 10SM CLR 06/M02 A3009 RMK AO2 SLP193 T00611017 10067 20044 53009
Loading
Personal Weather Stations






























Interactive Weather Map New forecast layout! Learn more

10-Day Weather Forecast

Advertisements
Track Severe Weather on mobile